Time;durP1;ratioP1;P1;durP2;ratioP2;P2;SDS_P1;SDS_P2;PMS_P1;PMS_P2;Temp;Humidity;BMP_temperature;BMP_pressure;BME280_temperature;BME280_humidity;BME280_pressure;Samples;Min_cycle;Max_cycle;Signal;HPM_P1;HPM_P2
2021/01/25 00:00:09;;;;;;;10.03;6.27;;;;;;;-3.47;78.86;93783.94;4960534;28;20211;-76
2021/01/25 00:02:34;;;;;;;8.53;5.63;;;;;;;-3.56;79.53;93787.09;4992960;28;20175;-76
2021/01/25 00:05:00;;;;;;;8.03;5.17;;;;;;;-3.52;79.62;93782.66;4976202;28;20180;-76
2021/01/25 00:07:25;;;;;;;8.50;4.83;;;;;;;-3.59;79.79;93776.38;4976543;28;20551;-76
2021/01/25 00:09:51;;;;;;;7.40;5.30;;;;;;;-3.53;78.83;93779.31;4960333;28;20177;-76
2021/01/25 00:12:16;;;;;;;8.70;5.70;;;;;;;-3.58;79.41;93767.84;4976579;28;20184;-77
2021/01/25 00:14:41;;;;;;;7.63;4.83;;;;;;;-3.58;79.09;93761.03;4976337;28;20180;-76
2021/01/25 00:17:07;;;;;;;8.93;5.37;;;;;;;-3.54;78.58;93757.34;4976367;28;20665;-75
2021/01/25 00:19:32;;;;;;;8.90;5.90;;;;;;;-3.57;79.01;93757.59;4993754;28;20211;-76
2021/01/25 00:21:57;;;;;;;8.13;5.30;;;;;;;-3.63;79.55;93759.72;4975320;28;20175;-75
2021/01/25 00:24:22;;;;;;;7.03;4.83;;;;;;;-3.65;79.48;93759.03;4976128;28;20184;-75
2021/01/25 00:26:48;;;;;;;6.13;4.57;;;;;;;-3.73;79.55;93750.22;4976032;28;20208;-76
2021/01/25 00:29:13;;;;;;;6.07;4.80;;;;;;;-3.75;80.06;93756.31;4993549;28;20667;-76
2021/01/25 00:31:38;;;;;;;9.10;5.10;;;;;;;-3.76;79.59;93754.69;4960597;28;20198;-76
2021/01/25 00:34:04;;;;;;;6.77;4.50;;;;;;;-3.82;79.39;93755.94;4959932;28;20227;-76
2021/01/25 00:36:29;;;;;;;7.90;5.20;;;;;;;-3.86;80.01;93764.66;4975683;28;20200;-76
2021/01/25 00:38:54;;;;;;;7.27;4.50;;;;;;;-3.89;79.94;93754.72;4976264;28;20191;-76
2021/01/25 00:41:20;;;;;;;8.07;4.80;;;;;;;-3.86;80.17;93758.78;4975931;28;20660;-76
2021/01/25 00:43:45;;;;;;;6.67;4.83;;;;;;;-3.78;79.08;93756.53;4975854;28;20226;-76
2021/01/25 00:46:11;;;;;;;6.67;4.77;;;;;;;-3.81;79.13;93755.00;4975577;28;20204;-76
2021/01/25 00:48:36;;;;;;;9.00;4.53;;;;;;;-3.83;79.43;93734.03;4975904;28;20176;-76
2021/01/25 00:51:01;;;;;;;10.23;4.50;;;;;;;-3.64;78.34;93747.97;4993070;28;20176;-76
2021/01/25 00:53:27;;;;;;;7.57;5.00;;;;;;;-3.86;79.00;93736.78;4975811;28;20176;-76
2021/01/25 00:55:52;;;;;;;11.73;5.60;;;;;;;-3.90;79.57;93726.94;4975358;28;20719;-76
2021/01/25 00:58:17;;;;;;;9.33;4.80;;;;;;;-3.89;79.14;93734.44;4959512;28;20187;-76
2021/01/25 01:00:42;;;;;;;5.43;3.90;;;;;;;-3.87;78.97;93732.63;4975371;28;20598;-76
2021/01/25 01:03:08;;;;;;;8.07;4.63;;;;;;;-3.98;79.23;93740.13;4975618;28;20211;-76
2021/01/25 01:05:33;;;;;;;7.97;4.90;;;;;;;-4.09;79.59;93740.06;4975044;28;20257;-76
2021/01/25 01:07:58;;;;;;;5.90;4.90;;;;;;;-3.89;79.08;93739.50;4975570;28;20268;-76
2021/01/25 01:10:24;;;;;;;5.53;4.47;;;;;;;-3.96;79.31;93738.34;4975524;28;20194;-76
2021/01/25 01:12:49;;;;;;;6.13;4.20;;;;;;;-3.91;79.41;93736.28;4975385;28;20650;-76
2021/01/25 01:15:15;;;;;;;5.27;4.03;;;;;;;-3.78;78.92;93737.06;4958861;28;20224;-76
2021/01/25 01:17:40;;;;;;;6.87;3.93;;;;;;;-3.78;78.26;93737.06;4975295;28;20604;-76
2021/01/25 01:20:06;;;;;;;4.73;3.70;;;;;;;-3.80;78.79;93740.59;4992500;28;20211;-76
2021/01/25 01:22:32;;;;;;;4.83;3.83;;;;;;;-3.83;78.82;93748.44;4959111;28;20274;-76
2021/01/25 01:24:57;;;;;;;5.13;4.17;;;;;;;-3.78;78.96;93741.31;4974759;28;20278;-76
2021/01/25 01:27:23;;;;;;;6.57;4.50;;;;;;;-3.61;78.44;93747.78;4975215;28;20180;-76
2021/01/25 01:29:48;;;;;;;5.43;4.23;;;;;;;-3.61;78.36;93740.16;4975156;28;20251;-76
2021/01/25 01:32:13;;;;;;;6.70;4.37;;;;;;;-3.66;78.39;93737.13;4975051;28;20219;-75
2021/01/25 01:34:39;;;;;;;7.87;4.10;;;;;;;-3.58;77.84;93737.41;4992152;28;20184;-74
2021/01/25 01:37:04;;;;;;;4.27;3.60;;;;;;;-3.59;77.73;93735.78;4992244;28;20205;-74
2021/01/25 01:39:29;;;;;;;4.67;3.83;;;;;;;-3.54;77.83;93728.63;4974948;28;20200;-76
2021/01/25 01:41:55;;;;;;;4.73;3.80;;;;;;;-3.63;78.39;93729.28;4975164;28;20199;-76
2021/01/25 01:44:20;;;;;;;4.07;3.13;;;;;;;-3.49;77.97;93721.53;4992109;28;20183;-76
2021/01/25 01:46:46;;;;;;;6.40;3.30;;;;;;;-3.52;78.27;93729.38;4974777;28;20228;-76
2021/01/25 01:49:11;;;;;;;4.37;3.53;;;;;;;-3.49;78.33;93724.88;4974786;28;20176;-75
2021/01/25 01:51:38;;;;;;;4.77;3.47;;;;;;;-3.47;78.68;93732.38;4974828;28;20191;-76
2021/01/25 01:54:04;;;;;;;7.43;4.53;;;;;;;-3.47;78.53;93729.84;4974837;28;20183;-76
2021/01/25 01:56:29;;;;;;;4.53;3.63;;;;;;;-3.54;78.38;93728.63;4958381;28;20207;-76
2021/01/25 01:58:54;;;;;;;6.57;3.57;;;;;;;-3.60;78.17;93731.63;4974994;28;20250;-76
2021/01/25 02:01:20;;;;;;;5.63;3.43;;;;;;;-3.63;79.17;93727.56;4958535;28;20283;-76
2021/01/25 02:03:45;;;;;;;5.63;3.60;;;;;;;-3.58;79.21;93733.13;4974593;28;20656;-75
2021/01/25 02:06:10;;;;;;;4.00;2.90;;;;;;;-3.58;79.10;93724.72;4974407;28;20765;-76
2021/01/25 02:08:37;;;;;;;5.47;3.37;;;;;;;-3.58;79.02;93728.06;4974716;28;20279;-76
2021/01/25 02:11:02;;;;;;;6.30;3.70;;;;;;;-3.55;78.92;93730.38;4958783;28;20212;-75
2021/01/25 02:13:29;;;;;;;5.83;3.60;;;;;;;-3.55;79.36;93721.94;4974408;28;20226;-76
2021/01/25 02:15:54;;;;;;;4.30;3.27;;;;;;;-3.59;79.72;93726.44;4974375;28;20191;-75
2021/01/25 02:18:20;;;;;;;8.10;3.80;;;;;;;-3.52;79.33;93721.75;4974610;28;20183;-76
2021/01/25 02:20:45;;;;;;;4.67;2.80;;;;;;;-3.53;79.98;93722.66;4974485;28;20214;-76
2021/01/25 02:23:23;;;;;;;3.77;3.27;;;;;;;-3.53;79.76;93720.13;4974474;28;20177;-76
2021/01/25 02:25:58;;;;;;;6.37;3.40;;;;;;;-3.46;80.42;93724.63;4974219;28;20286;-76
2021/01/25 02:28:23;;;;;;;5.23;3.10;;;;;;;-3.51;80.07;93723.38;4991947;28;20179;-74
2021/01/25 02:30:49;;;;;;;4.17;3.27;;;;;;;-3.52;80.36;93725.09;4991829;28;20179;-75
2021/01/25 02:33:16;;;;;;;5.10;3.33;;;;;;;-3.47;81.07;93724.75;4974406;28;20250;-75
2021/01/25 02:35:41;;;;;;;4.03;3.00;;;;;;;-3.46;81.31;93724.63;4957920;28;20191;-75
2021/01/25 02:38:08;;;;;;;4.43;2.80;;;;;;;-3.39;80.69;93726.75;4958526;28;20247;-75
2021/01/25 02:40:34;;;;;;;6.83;3.50;;;;;;;-3.33;81.03;93723.78;4958148;28;20215;-74
2021/01/25 02:43:00;;;;;;;4.30;3.20;;;;;;;-3.36;80.90;93722.25;4974469;28;20200;-75
2021/01/25 02:45:25;;;;;;;3.20;2.90;;;;;;;-3.38;81.48;93719.03;4976355;28;20271;-75
2021/01/25 02:47:52;;;;;;;3.97;2.80;;;;;;;-3.34;81.38;93720.44;4978143;28;20184;-75
2021/01/25 02:50:17;;;;;;;3.07;2.67;;;;;;;-3.34;81.27;93719.63;4961936;28;20304;-74
2021/01/25 02:52:42;;;;;;;3.77;2.57;;;;;;;-3.37;81.68;93715.56;4978003;28;20237;-75
2021/01/25 02:55:10;;;;;;;3.90;2.60;;;;;;;-3.30;81.50;93723.56;4961452;28;20204;-75
2021/01/25 02:57:36;;;;;;;4.27;3.10;;;;;;;-3.33;82.29;93721.25;4961849;28;20176;-74
2021/01/25 03:00:04;;;;;;;3.93;2.80;;;;;;;-3.29;81.97;93720.09;4977717;28;20703;-74
2021/01/25 03:02:29;;;;;;;4.70;2.87;;;;;;;-3.31;82.51;93721.94;4977800;28;20192;-75
2021/01/25 03:04:55;;;;;;;3.67;2.60;;;;;;;-3.33;82.70;93722.06;4977481;28;20172;-74
2021/01/25 03:07:20;;;;;;;4.17;2.90;;;;;;;-3.34;82.58;93720.44;4977761;28;20184;-76
2021/01/25 03:09:45;;;;;;;3.33;2.60;;;;;;;-3.27;82.23;93725.88;4977828;28;20206;-76
2021/01/25 03:12:11;;;;;;;3.30;2.50;;;;;;;-3.22;81.98;93723.84;4995174;28;20387;-76
2021/01/25 03:14:45;;;;;;;2.80;2.37;;;;;;;-3.27;82.54;93725.88;4994745;28;20207;-76
2021/01/25 03:17:11;;;;;;;2.93;2.10;;;;;;;-3.22;81.97;93722.09;4977399;28;20275;-76
2021/01/25 03:19:36;;;;;;;5.10;2.60;;;;;;;-3.24;82.51;93729.03;4977704;28;20206;-76
2021/01/25 03:22:02;;;;;;;4.67;2.57;;;;;;;-3.24;82.74;93731.56;4994862;28;20203;-76
2021/01/25 03:24:27;;;;;;;4.13;2.77;;;;;;;-3.24;82.38;93725.69;4961095;28;20703;-76
2021/01/25 03:26:52;;;;;;;3.87;2.57;;;;;;;-3.25;83.01;93731.69;4994794;28;20680;-76
2021/01/25 03:29:18;;;;;;;3.00;2.60;;;;;;;-3.25;82.91;93735.03;4994613;28;20183;-76
2021/01/25 03:31:43;;;;;;;5.30;2.93;;;;;;;-3.21;83.25;93733.88;4977310;28;20167;-76
2021/01/25 03:34:08;;;;;;;4.60;2.63;;;;;;;-3.17;82.72;93734.47;4976805;28;20579;-76
2021/01/25 03:36:35;;;;;;;5.37;3.03;;;;;;;-3.18;82.54;93735.38;4960976;28;20201;-76
2021/01/25 03:39:00;;;;;;;4.43;2.83;;;;;;;-3.06;82.60;93728.63;4977101;28;20173;-76
2021/01/25 03:41:27;;;;;;;3.20;2.50;;;;;;;-3.11;82.80;93735.75;4977244;28;20261;-76
2021/01/25 03:43:52;;;;;;;3.50;2.87;;;;;;;-3.15;82.53;93725.81;4977052;28;20264;-73
2021/01/25 03:46:18;;;;;;;3.60;2.60;;;;;;;-3.11;82.71;93733.22;4976822;28;20294;-74
2021/01/25 03:48:43;;;;;;;4.07;2.83;;;;;;;-3.13;82.87;93733.31;4977085;28;20184;-73
2021/01/25 03:51:09;;;;;;;2.73;2.33;;;;;;;-3.07;83.10;93737.97;4977009;28;20349;-73
2021/01/25 03:53:34;;;;;;;5.33;2.90;;;;;;;-3.09;82.60;93733.91;4976974;28;20264;-76
2021/01/25 03:55:59;;;;;;;3.93;2.67;;;;;;;-3.15;82.97;93738.53;4976575;28;20197;-76
2021/01/25 03:58:28;;;;;;;4.53;2.77;;;;;;;-3.14;83.34;93735.06;4976687;28;20192;-74
2021/01/25 04:00:53;;;;;;;3.87;2.83;;;;;;;-3.15;83.32;93732.63;4976782;28;20708;-74
2021/01/25 04:03:19;;;;;;;3.30;2.90;;;;;;;-3.18;83.73;93737.91;4960910;28;20185;-76
2021/01/25 04:05:44;;;;;;;3.07;2.77;;;;;;;-3.15;83.56;93735.97;4976323;28;20517;-76
2021/01/25 04:08:09;;;;;;;4.10;2.57;;;;;;;-3.18;83.24;93738.75;4993910;28;20180;-76
2021/01/25 04:10:35;;;;;;;3.17;2.60;;;;;;;-3.16;83.57;93746.25;4976862;28;20209;-75
2021/01/25 04:13:00;;;;;;;3.50;2.80;;;;;;;-3.17;83.73;93742.91;4960444;28;20172;-74
2021/01/25 04:15:26;;;;;;;6.27;3.10;;;;;;;-3.14;84.11;93745.22;4976210;28;20200;-75
2021/01/25 04:17:51;;;;;;;5.03;2.77;;;;;;;-3.13;83.64;93746.81;4993934;28;20187;-76
2021/01/25 04:20:16;;;;;;;4.37;2.83;;;;;;;-3.11;84.07;93748.44;4976399;28;20622;-76
2021/01/25 04:22:41;;;;;;;3.70;2.73;;;;;;;-3.10;84.22;93742.44;4993818;28;20265;-76
2021/01/25 04:25:08;;;;;;;5.73;3.63;;;;;;;-3.11;84.39;93754.34;4975990;28;20693;-74
2021/01/25 04:27:34;;;;;;;8.33;5.23;;;;;;;-3.09;84.88;93752.53;4960121;28;20210;-74
2021/01/25 04:29:59;;;;;;;9.87;6.00;;;;;;;-3.11;84.93;93751.78;4960062;28;20199;-75
2021/01/25 04:32:25;;;;;;;8.07;5.20;;;;;;;-3.09;84.80;93756.75;4993762;28;20179;-74
2021/01/25 04:34:51;;;;;;;6.83;4.50;;;;;;;-3.10;84.56;93755.13;4993324;28;20652;-75
2021/01/25 04:37:17;;;;;;;6.00;4.37;;;;;;;-3.03;84.50;93754.59;4993450;28;20181;-75
2021/01/25 04:39:42;;;;;;;4.70;2.90;;;;;;;-2.99;84.32;93752.66;4959937;28;20218;-76
2021/01/25 04:42:07;;;;;;;8.53;3.77;;;;;;;-3.02;84.19;93763.03;4993427;28;20604;-74
2021/01/25 04:44:33;;;;;;;4.57;3.90;;;;;;;-3.00;84.10;93756.13;4975725;28;20214;-74
2021/01/25 04:47:01;;;;;;;5.77;3.90;;;;;;;-3.04;83.81;93749.63;4975984;28;20545;-74
2021/01/25 04:49:27;;;;;;;4.77;4.23;;;;;;;-3.14;83.93;93750.28;4959785;28;20171;-74
2021/01/25 04:51:53;;;;;;;6.00;4.30;;;;;;;-3.19;84.34;93754.06;4975858;28;20182;-74
2021/01/25 04:54:18;;;;;;;5.73;4.20;;;;;;;-3.21;85.00;93761.78;4975420;28;20267;-74
2021/01/25 04:56:44;;;;;;;6.10;4.97;;;;;;;-3.20;84.48;93752.44;4993067;28;20272;-74
2021/01/25 04:59:09;;;;;;;5.63;3.93;;;;;;;-3.17;85.35;93759.88;4975573;28;20173;-74
2021/01/25 05:01:35;;;;;;;7.03;4.70;;;;;;;-3.16;85.68;93764.03;4993251;28;20269;-76
2021/01/25 05:04:00;;;;;;;5.70;4.67;;;;;;;-3.14;85.60;93762.19;4993053;28;20180;-76
2021/01/25 05:06:25;;;;;;;7.37;4.37;;;;;;;-3.11;84.84;93771.28;4992487;28;20207;-74
2021/01/25 05:08:51;;;;;;;6.70;4.30;;;;;;;-3.11;84.79;93767.03;4958860;28;20183;-75
2021/01/25 05:11:17;;;;;;;5.97;4.13;;;;;;;-3.09;85.04;93769.44;4992886;28;20172;-75
2021/01/25 05:13:43;;;;;;;5.40;4.10;;;;;;;-3.08;84.79;93773.63;4975349;28;20181;-74
2021/01/25 05:16:18;;;;;;;6.57;4.87;;;;;;;-3.07;84.42;93777.78;4975064;28;20197;-74
2021/01/25 05:18:44;;;;;;;6.90;4.60;;;;;;;-3.03;84.61;93769.03;4992707;28;20229;-75
2021/01/25 05:21:10;;;;;;;8.57;4.83;;;;;;;-3.06;85.11;93780.22;4975240;28;20602;-74
2021/01/25 05:23:40;;;;;;;7.07;5.43;;;;;;;-3.07;85.01;93776.06;4992700;28;20181;-75
2021/01/25 05:26:09;;;;;;;7.00;5.17;;;;;;;-3.09;84.77;93780.44;4974707;28;20285;-75
2021/01/25 05:28:41;;;;;;;8.87;5.50;;;;;;;-3.07;85.23;93778.59;4975190;28;20181;-75
2021/01/25 05:31:23;;;;;;;7.43;4.67;;;;;;;-3.09;85.55;93779.59;4975217;28;20178;-77
2021/01/25 05:33:49;;;;;;;8.17;4.00;;;;;;;-3.08;85.50;93776.19;4958998;28;20263;-74
2021/01/25 05:36:16;;;;;;;6.90;4.27;;;;;;;-3.11;85.68;93779.72;4958618;28;20203;-76
2021/01/25 05:38:41;;;;;;;5.47;4.00;;;;;;;-3.11;85.37;93779.72;4974991;28;20687;-76
2021/01/25 05:41:07;;;;;;;5.37;3.80;;;;;;;-3.11;85.18;93777.19;4992526;28;20498;-76
2021/01/25 05:43:33;;;;;;;6.33;4.70;;;;;;;-3.11;84.91;93778.91;4975004;28;20190;-76
2021/01/25 05:46:09;;;;;;;6.97;4.60;;;;;;;-3.11;85.33;93776.38;4974672;28;20205;-74
2021/01/25 05:48:34;;;;;;;6.10;3.50;;;;;;;-3.05;85.21;93791.19;4992311;28;20168;-76
2021/01/25 05:51:16;;;;;;;9.10;3.43;;;;;;;-3.06;85.06;93784.50;4974793;28;20542;-76
2021/01/25 05:53:43;;;;;;;4.47;2.53;;;;;;;-3.05;85.17;93789.44;4975153;28;20512;-74
2021/01/25 05:56:10;;;;;;;5.33;2.50;;;;;;;-3.01;85.28;93790.03;4958492;28;20630;-76
2021/01/25 05:58:36;;;;;;;5.87;2.53;;;;;;;-3.01;85.51;93792.56;4974879;28;20255;-76
2021/01/25 06:01:02;;;;;;;5.30;2.47;;;;;;;-3.00;85.23;93791.69;4974846;28;20519;-76
2021/01/25 06:03:28;;;;;;;2.83;2.00;;;;;;;-3.02;85.49;93785.88;4992038;28;20178;-76
2021/01/25 06:05:54;;;;;;;4.70;2.13;;;;;;;-2.99;85.76;93786.50;4973006;28;20208;-76
2021/01/25 06:08:48;;;;;;;5.07;2.80;;;;;;;-3.03;85.53;93792.69;4974614;28;20199;-76
2021/01/25 06:11:16;;;;;;;5.43;2.87;;;;;;;-3.08;85.53;93788.88;4983123;28;20193;-76
2021/01/25 06:13:49;;;;;;;4.23;2.93;;;;;;;-3.09;85.63;93793.16;4992090;28;20182;-76
2021/01/25 06:16:15;;;;;;;4.03;2.90;;;;;;;-3.14;85.37;93792.66;4974205;28;20198;-75
2021/01/25 06:18:41;;;;;;;4.70;3.00;;;;;;;-3.12;85.54;93800.97;4974755;28;20703;-77
2021/01/25 06:21:08;;;;;;;2.63;2.33;;;;;;;-3.12;85.29;93795.88;4977236;28;20217;-75
2021/01/25 06:23:33;;;;;;;7.33;2.60;;;;;;;-3.03;85.13;93804.56;4965039;28;20193;-75
2021/01/25 06:25:59;;;;;;;8.40;2.67;;;;;;;-3.05;85.72;93802.16;4976450;28;20673;-74
2021/01/25 06:28:24;;;;;;;5.27;3.27;;;;;;;-3.02;86.13;93801.91;4982528;28;20182;-74
2021/01/25 06:30:49;;;;;;;5.80;2.80;;;;;;;-3.00;86.31;93814.53;4981529;28;21176;-74
2021/01/25 06:33:16;;;;;;;2.40;2.00;;;;;;;-2.97;85.87;93804.16;5015383;28;20176;-74
2021/01/25 06:35:41;;;;;;;3.40;2.03;;;;;;;-2.94;86.41;93809.00;4981394;28;20599;-76
2021/01/25 06:38:13;;;;;;;3.30;2.30;;;;;;;-2.92;85.67;93812.22;4981093;28;20218;-75
2021/01/25 06:40:41;;;;;;;3.53;3.03;;;;;;;-2.88;86.27;93813.66;4981544;28;20201;-75
2021/01/25 06:43:08;;;;;;;4.37;2.33;;;;;;;-2.91;86.66;93809.63;5014970;28;20173;-75
2021/01/25 06:45:34;;;;;;;3.70;2.40;;;;;;;-2.87;86.11;93821.16;4969495;28;20210;-77
2021/01/25 06:47:59;;;;;;;2.77;2.13;;;;;;;-2.81;85.90;93825.00;4978123;28;20261;-76
2021/01/25 06:50:25;;;;;;;4.33;2.30;;;;;;;-2.80;85.88;93825.81;4961851;28;20540;-76
2021/01/25 06:52:51;;;;;;;2.77;2.40;;;;;;;-2.80;85.98;93829.16;4977965;28;20186;-76
2021/01/25 06:55:16;;;;;;;3.60;2.50;;;;;;;-2.80;86.12;93830.91;4977581;28;20213;-74
2021/01/25 06:57:43;;;;;;;4.27;2.57;;;;;;;-2.77;86.65;93833.22;4977682;28;20181;-76
2021/01/25 07:00:12;;;;;;;2.57;2.27;;;;;;;-2.75;86.38;93839.78;4977703;28;20196;-76
2021/01/25 07:03:18;;;;;;;2.73;2.27;;;;;;;-2.71;86.36;93840.41;4961483;28;20178;-76
2021/01/25 07:05:44;;;;;;;4.17;2.40;;;;;;;-2.66;86.83;93844.22;4918420;29;20227;-77
2021/01/25 07:08:17;;;;;;;2.10;1.97;;;;;;;-2.64;86.75;93844.94;4934819;29;20612;-76
2021/01/25 07:10:56;;;;;;;3.27;1.77;;;;;;;-2.62;87.11;93854.97;4928804;29;20184;-76
2021/01/25 07:13:26;;;;;;;4.27;2.77;;;;;;;-2.68;87.13;93861.31;4906109;29;20703;-76
2021/01/25 07:15:52;;;;;;;7.27;4.67;;;;;;;-2.70;86.71;93855.53;4925338;29;20267;-76
2021/01/25 07:18:19;;;;;;;4.53;3.40;;;;;;;-2.61;86.04;93862.50;4908440;29;20190;-75
2021/01/25 07:20:48;;;;;;;4.87;2.40;;;;;;;-2.64;86.50;93860.19;4910307;29;20238;-76
2021/01/25 07:23:17;;;;;;;3.50;2.57;;;;;;;-2.65;86.17;93865.34;4899856;29;20208;-76
2021/01/25 07:25:45;;;;;;;2.23;2.03;;;;;;;-2.59;86.43;93870.81;4915186;29;20199;-76
2021/01/25 07:28:10;;;;;;;1.97;1.87;;;;;;;-2.56;86.22;93877.44;4899403;29;20189;-76
2021/01/25 07:30:35;;;;;;;2.40;2.20;;;;;;;-2.55;86.58;93881.59;4901431;29;20232;-75
2021/01/25 07:33:05;;;;;;;2.57;2.17;;;;;;;-2.45;86.38;93884.28;4923007;29;20573;-75
2021/01/25 07:35:31;;;;;;;3.13;2.47;;;;;;;-2.41;86.79;93885.66;4883529;29;20212;-75
2021/01/25 07:37:57;;;;;;;5.40;3.53;;;;;;;-2.38;86.92;93893.09;4901736;29;20185;-75
2021/01/25 07:40:23;;;;;;;7.37;4.70;;;;;;;-2.29;86.32;93894.97;4937829;29;20230;-76
2021/01/25 07:42:49;;;;;;;9.33;5.93;;;;;;;-2.30;86.25;93891.63;4954620;29;20180;-76
2021/01/25 07:45:14;;;;;;;5.90;4.10;;;;;;;-2.20;86.08;93899.38;4954525;28;20202;-76
2021/01/25 07:47:44;;;;;;;6.37;3.10;;;;;;;-2.14;86.09;93904.00;4955730;28;20212;-76
2021/01/25 07:50:09;;;;;;;3.27;2.40;;;;;;;-2.08;86.36;93910.38;4978017;28;20215;-76
2021/01/25 07:52:34;;;;;;;1.93;1.77;;;;;;;-2.04;86.38;93910.03;4976719;28;20207;-76
2021/01/25 07:55:15;;;;;;;2.07;1.60;;;;;;;-1.93;86.22;93908.47;4993884;28;20175;-76
2021/01/25 07:57:42;;;;;;;1.63;1.50;;;;;;;-1.96;86.14;93913.75;4976940;28;20204;-75
2021/01/25 08:00:17;;;;;;;1.70;1.60;;;;;;;-1.89;85.85;93909.84;4976484;28;20225;-75
2021/01/25 08:02:47;;;;;;;3.17;1.50;;;;;;;-1.86;86.17;93909.59;4994283;28;20280;-75
2021/01/25 08:05:12;;;;;;;2.23;1.90;;;;;;;-1.79;86.11;93920.97;4976283;28;20205;-76
2021/01/25 08:07:38;;;;;;;2.63;2.07;;;;;;;-1.76;85.92;93918.22;4960624;28;20551;-75
2021/01/25 08:10:05;;;;;;;2.40;1.87;;;;;;;-1.68;85.84;93930.34;4972834;28;20641;-75
2021/01/25 08:12:30;;;;;;;1.70;1.60;;;;;;;-1.59;85.88;93933.03;4957211;28;20215;-75
2021/01/25 08:15:00;;;;;;;2.23;1.43;;;;;;;-1.54;85.56;93927.59;4956126;28;20638;-75
2021/01/25 08:17:33;;;;;;;2.47;2.17;;;;;;;-1.43;85.61;93933.50;4957596;28;20172;-76
2021/01/25 08:20:11;;;;;;;3.33;2.20;;;;;;;-1.42;85.20;93940.22;4973161;28;20581;-75
2021/01/25 08:22:48;;;;;;;3.20;2.00;;;;;;;-1.47;84.65;93942.31;4940726;28;20686;-75
2021/01/25 08:25:19;;;;;;;2.43;2.10;;;;;;;-1.36;85.11;93949.13;4956727;28;20226;-75
2021/01/25 08:27:54;;;;;;;3.80;3.33;;;;;;;-1.37;85.01;93944.16;4956982;28;20179;-75
2021/01/25 08:30:22;;;;;;;19.60;9.60;;;;;;;-1.32;84.87;93954.81;4957001;28;20222;-76
2021/01/25 08:32:51;;;;;;;10.37;5.57;;;;;;;-1.34;84.23;93957.47;4974109;28;20192;-76
2021/01/25 08:35:32;;;;;;;6.60;4.00;;;;;;;-1.33;84.14;93963.38;4956689;28;20203;-75
2021/01/25 08:38:31;;;;;;;7.63;4.17;;;;;;;-1.30;84.13;93970.78;4956582;28;20263;-75
2021/01/25 08:40:58;;;;;;;4.57;3.60;;;;;;;-1.23;84.38;93970.22;4955321;28;20247;-76
2021/01/25 08:43:27;;;;;;;3.37;2.63;;;;;;;-1.22;84.33;93971.03;4955810;28;20250;-75
2021/01/25 08:45:53;;;;;;;1.90;1.33;;;;;;;-1.18;84.21;93977.50;4938728;28;20242;-75
2021/01/25 08:48:30;;;;;;;3.60;1.87;;;;;;;-1.15;84.25;93980.66;4959484;28;20187;-75
2021/01/25 08:51:16;;;;;;;1.50;1.20;;;;;;;-1.05;83.61;93980.75;4968633;28;20540;-75
2021/01/25 08:53:45;;;;;;;2.77;2.40;;;;;;;-0.94;83.03;93978.19;4958679;28;20188;-74
2021/01/25 08:56:20;;;;;;;1.90;1.60;;;;;;;-0.77;82.27;93986.31;4992591;28;20241;-74
2021/01/25 08:58:45;;;;;;;2.20;1.67;;;;;;;-0.51;82.01;93981.75;4984726;28;20283;-74
2021/01/25 09:01:13;;;;;;;1.53;1.43;;;;;;;-0.34;81.65;93988.91;4956327;28;20219;-74
2021/01/25 09:03:38;;;;;;;1.50;1.40;;;;;;;-0.28;80.57;93994.31;4959886;28;20222;-74
2021/01/25 09:06:04;;;;;;;1.57;1.47;;;;;;;-0.21;80.18;93999.75;4975299;28;20267;-75
2021/01/25 09:08:29;;;;;;;1.90;1.57;;;;;;;-0.22;79.73;94005.78;4993222;28;20592;-75
2021/01/25 09:10:56;;;;;;;1.57;1.47;;;;;;;-0.22;79.61;94008.31;4975344;28;20218;-75
2021/01/25 09:13:21;;;;;;;5.73;3.00;;;;;;;-0.05;79.80;94010.38;4975371;28;20222;-75
2021/01/25 09:15:47;;;;;;;8.17;3.83;;;;;;;-0.12;78.67;94014.31;4974808;28;20235;-75
2021/01/25 09:18:12;;;;;;;10.40;4.87;;;;;;;0.08;78.98;94015.28;4992742;28;20190;-75
2021/01/25 09:20:38;;;;;;;39.37;15.03;;;;;;;0.00;78.17;94027.88;4982099;28;20222;-75
2021/01/25 09:23:03;;;;;;;22.07;8.70;;;;;;;0.03;79.09;94029.38;4957618;28;20609;-75
2021/01/25 09:25:31;;;;;;;12.90;5.97;;;;;;;0.01;78.69;94028.69;4962348;28;20278;-75
2021/01/25 09:27:56;;;;;;;27.67;11.53;;;;;;;0.10;78.64;94033.06;4953790;28;20219;-75
2021/01/25 09:30:22;;;;;;;4.13;2.70;;;;;;;-0.03;78.94;94036.56;4936350;29;20220;-75
2021/01/25 09:32:47;;;;;;;4.43;3.60;;;;;;;-0.17;79.43;94048.81;4953988;28;20193;-75
2021/01/25 09:35:16;;;;;;;1.63;1.53;;;;;;;-0.31;79.63;94045.56;4952128;28;20205;-75
2021/01/25 09:37:42;;;;;;;3.73;1.23;;;;;;;-0.43;79.61;94049.09;4936469;29;20181;-75
2021/01/25 09:40:08;;;;;;;1.33;1.23;;;;;;;-0.52;80.75;94054.88;4920599;29;20220;-75
2021/01/25 09:42:33;;;;;;;4.17;2.10;;;;;;;-0.48;80.57;94058.00;4920617;28;20201;-77
2021/01/25 09:44:59;;;;;;;1.00;0.90;;;;;;;-0.42;79.78;94055.78;4953355;29;20192;-75
2021/01/25 09:47:24;;;;;;;1.10;1.00;;;;;;;-0.34;79.95;94061.13;4953579;28;20184;-74
2021/01/25 09:49:50;;;;;;;0.90;0.80;;;;;;;-0.22;79.58;94066.19;4955519;28;20608;-74
2021/01/25 09:52:15;;;;;;;1.97;0.97;;;;;;;-0.42;79.91;94068.56;4955524;28;20615;-74
2021/01/25 09:54:40;;;;;;;0.90;0.90;;;;;;;-0.28;79.50;94067.47;4972734;28;20193;-77
2021/01/25 09:57:06;;;;;;;0.90;0.60;;;;;;;-0.41;79.84;94075.28;4955428;28;20361;-74
2021/01/25 09:59:31;;;;;;;0.70;0.70;;;;;;;-0.32;79.86;94082.22;4939291;28;20224;-75
2021/01/25 10:01:57;;;;;;;0.70;0.70;;;;;;;-0.43;79.64;94091.63;4955424;28;20275;-74
2021/01/25 10:04:22;;;;;;;1.00;0.90;;;;;;;-0.58;79.97;94091.03;4972508;28;20249;-75
2021/01/25 10:06:47;;;;;;;1.10;1.00;;;;;;;-0.67;80.62;94086.63;4972745;28;20291;-77
2021/01/25 10:09:12;;;;;;;0.97;0.83;;;;;;;-0.62;80.49;94094.72;4972394;28;20590;-75
2021/01/25 10:11:38;;;;;;;1.27;1.00;;;;;;;-0.73;80.65;94095.53;4955287;28;20580;-77
2021/01/25 10:14:03;;;;;;;1.10;1.00;;;;;;;-0.63;80.27;94100.75;4972542;28;20184;-77
2021/01/25 10:16:28;;;;;;;1.13;1.03;;;;;;;-0.54;80.24;94101.81;4972346;28;20200;-75
2021/01/25 10:18:54;;;;;;;1.13;1.03;;;;;;;-0.18;79.37;94101.53;4954935;28;20184;-75
2021/01/25 10:21:19;;;;;;;1.10;0.93;;;;;;;-0.11;79.23;94104.44;4955237;28;20208;-76
2021/01/25 10:23:46;;;;;;;0.70;0.70;;;;;;;0.09;78.77;94113.94;4955180;28;20181;-76
2021/01/25 10:26:11;;;;;;;0.80;0.70;;;;;;;-0.15;78.60;94115.81;4971328;28;20292;-76
2021/01/25 10:28:37;;;;;;;1.27;0.80;;;;;;;0.01;78.51;94115.47;4955536;28;20211;-77
2021/01/25 10:31:02;;;;;;;0.90;0.83;;;;;;;0.16;78.18;94120.16;4955699;28;20168;-77
2021/01/25 10:33:27;;;;;;;0.70;0.70;;;;;;;0.19;78.49;94117.38;4972658;28;20184;-74
2021/01/25 10:35:53;;;;;;;1.00;0.70;;;;;;;0.18;77.27;94117.50;4972347;28;20204;-75
2021/01/25 10:38:18;;;;;;;1.07;0.80;;;;;;;0.19;77.30;94124.25;4939169;28;20184;-75
2021/01/25 10:40:43;;;;;;;0.40;0.40;;;;;;;0.21;77.08;94130.84;4955233;28;20213;-77
2021/01/25 10:43:09;;;;;;;18.00;8.20;;;;;;;0.19;77.27;94132.72;4939369;28;20198;-74
2021/01/25 10:45:34;;;;;;;16.50;7.73;;;;;;;0.16;77.13;94130.38;4954593;28;20559;-74
2021/01/25 10:48:00;;;;;;;17.70;8.70;;;;;;;0.34;77.50;94137.53;4955022;28;20188;-75
2021/01/25 10:50:25;;;;;;;17.00;5.90;;;;;;;0.42;76.16;94140.28;4954893;28;20172;-74
2021/01/25 10:52:51;;;;;;;9.03;3.27;;;;;;;0.72;75.57;94148.09;4972199;28;20552;-75
2021/01/25 10:55:16;;;;;;;4.60;2.23;;;;;;;1.11;74.23;94141.50;4971707;28;20196;-75
2021/01/25 10:57:42;;;;;;;2.43;1.77;;;;;;;1.12;73.69;94143.13;4954892;28;20173;-76
2021/01/25 11:00:13;;;;;;;3.00;1.63;;;;;;;1.09;73.77;94156.16;4972189;28;20204;-76
2021/01/25 11:02:39;;;;;;;0.70;0.70;;;;;;;1.07;73.61;94155.50;4954882;28;20180;-76
2021/01/25 11:05:06;;;;;;;0.70;0.70;;;;;;;1.31;73.59;94155.22;4972049;28;20207;-76
2021/01/25 11:07:33;;;;;;;0.83;0.70;;;;;;;1.62;72.06;94162.94;4942716;28;20179;-77
2021/01/25 11:09:58;;;;;;;0.50;0.50;;;;;;;1.70;72.42;94163.13;4958494;28;20168;-75
2021/01/25 11:12:23;;;;;;;0.40;0.40;;;;;;;1.58;72.47;94159.00;4942356;28;20185;-76
2021/01/25 11:14:48;;;;;;;0.53;0.50;;;;;;;1.32;72.61;94161.13;4958018;28;20195;-76
2021/01/25 11:17:14;;;;;;;0.70;0.70;;;;;;;1.21;73.40;94174.81;4975618;28;20185;-74
2021/01/25 11:19:39;;;;;;;0.73;0.70;;;;;;;1.49;73.18;94172.56;4942074;28;20691;-75
2021/01/25 11:22:04;;;;;;;1.00;1.00;;;;;;;1.74;72.04;94172.13;4958400;28;20180;-75
2021/01/25 11:24:30;;;;;;;1.10;0.97;;;;;;;1.70;72.96;94175.91;4957871;28;20181;-75
2021/01/25 11:26:57;;;;;;;0.83;0.80;;;;;;;1.78;72.16;94178.66;4975322;28;20273;-74
2021/01/25 11:29:25;;;;;;;0.80;0.80;;;;;;;1.75;71.98;94178.88;4975276;28;20543;-74
2021/01/25 11:31:50;;;;;;;1.23;1.03;;;;;;;1.41;72.49;94181.69;4957906;28;20206;-74